Time;durP1;ratioP1;P1;durP2;ratioP2;P2;SDS_P1;SDS_P2;PMS_P1;PMS_P2;Temp;Humidity;BMP_temperature;BMP_pressure;BME280_temperature;BME280_humidity;BME280_pressure;Samples;Min_cycle;Max_cycle;Signal;HPM_P1;HPM_P2
2022/03/09 00:00:53;;;;;;;27.25;20.45;;;8.10;66.40;;;;;;10935241;32;20378;-70
2022/03/09 00:06:55;;;;;;;29.37;20.58;;;7.90;66.60;;;;;;10948378;32;20391;-70
2022/03/09 00:12:57;;;;;;;20.17;15.27;;;7.90;66.70;;;;;;10948260;32;20391;-70
2022/03/09 00:19:00;;;;;;;25.30;16.15;;;7.90;66.80;;;;;;10947929;32;20069;-70
2022/03/09 00:25:03;;;;;;;26.98;17.12;;;7.90;66.90;;;;;;10947806;32;20019;-70
2022/03/09 00:31:05;;;;;;;25.60;17.92;;;7.80;66.80;;;;;;10947735;32;20053;-70
2022/03/09 00:37:08;;;;;;;30.62;21.17;;;7.70;67.00;;;;;;10947533;32;20433;-70
2022/03/09 00:43:10;;;;;;;21.45;15.10;;;7.60;67.30;;;;;;10946712;32;20050;-71
2022/03/09 00:49:13;;;;;;;24.70;17.27;;;7.60;67.20;;;;;;10947032;32;20031;-70
2022/03/09 00:55:30;;;;;;;29.75;21.60;;;7.60;67.30;;;;;;10933729;32;20327;-70
2022/03/09 01:01:32;;;;;;;28.75;17.80;;;7.60;67.40;;;;;;10946960;32;20022;-70
2022/03/09 01:07:34;;;;;;;23.12;15.65;;;7.60;67.60;;;;;;10929784;32;20027;-70
2022/03/09 01:13:37;;;;;;;29.02;20.60;;;7.50;67.60;;;;;;10944739;32;20050;-70
2022/03/09 01:19:39;;;;;;;21.42;16.00;;;7.60;67.80;;;;;;10946380;32;20051;-70
2022/03/09 01:25:41;;;;;;;27.70;18.87;;;7.50;67.70;;;;;;10946173;32;20398;-70
2022/03/09 01:31:55;;;;;;;29.80;22.00;;;7.30;67.70;;;;;;10944210;32;20027;-70
2022/03/09 01:37:58;;;;;;;24.05;18.12;;;7.40;67.80;;;;;;10945440;32;20327;-70
2022/03/09 01:44:18;;;;;;;21.50;15.55;;;7.20;67.60;;;;;;10945023;32;20026;-70
2022/03/09 01:50:20;;;;;;;25.75;16.77;;;7.00;68.00;;;;;;10939486;32;20429;-68
2022/03/09 01:56:23;;;;;;;24.70;15.15;;;6.90;68.00;;;;;;10939807;32;20030;-67
2022/03/09 02:02:26;;;;;;;32.80;23.62;;;6.70;68.60;;;;;;10940826;32;20049;-68
2022/03/09 02:14:51;;;;;;;22.23;15.20;;;6.90;68.20;;;;;;10943499;32;20022;-68
2022/03/09 02:20:57;;;;;;;33.53;23.75;;;6.70;68.20;;;;;;10943224;32;20353;-68
2022/03/09 02:26:59;;;;;;;30.37;23.42;;;6.70;68.80;;;;;;10942896;32;20055;-67
2022/03/09 02:33:03;;;;;;;24.10;17.70;;;6.90;68.30;;;;;;10939449;32;20023;-67
2022/03/09 02:39:05;;;;;;;26.37;17.67;;;6.70;68.10;;;;;;10942624;32;20061;-67
2022/03/09 02:45:07;;;;;;;28.60;20.83;;;6.70;68.40;;;;;;10942525;32;20027;-67
2022/03/09 02:51:09;;;;;;;33.20;22.27;;;6.70;67.90;;;;;;10942382;32;20055;-68
2022/03/09 02:57:12;;;;;;;30.15;21.77;;;6.70;67.90;;;;;;10937550;32;20410;-68
2022/03/09 03:03:23;;;;;;;33.17;23.17;;;6.70;68.70;;;;;;10941869;32;20023;-68
2022/03/09 03:09:26;;;;;;;39.50;24.37;;;6.70;68.10;;;;;;10941655;32;20053;-67
2022/03/09 03:15:28;;;;;;;23.95;17.33;;;6.70;68.00;;;;;;10941741;32;20027;-68
2022/03/09 03:21:31;;;;;;;21.92;16.77;;;6.70;67.50;;;;;;10941567;32;20019;-67
2022/03/09 03:27:33;;;;;;;27.67;18.65;;;6.50;67.60;;;;;;10941620;32;20022;-68
2022/03/09 03:33:35;;;;;;;36.53;24.27;;;6.40;68.00;;;;;;10941282;32;20061;-68
2022/03/09 03:39:37;;;;;;;27.70;17.92;;;6.30;67.80;;;;;;10927897;32;20018;-68
2022/03/09 03:45:39;;;;;;;21.25;14.07;;;6.30;67.70;;;;;;10941128;32;20050;-68
2022/03/09 03:51:41;;;;;;;32.67;22.52;;;6.20;68.00;;;;;;10941086;32;20353;-68
2022/03/09 03:57:43;;;;;;;26.77;18.12;;;6.10;68.20;;;;;;10941036;32;20050;-68
2022/03/09 04:03:45;;;;;;;25.17;16.45;;;6.20;68.60;;;;;;10940999;32;20066;-68
2022/03/09 04:09:47;;;;;;;22.87;16.45;;;6.00;68.80;;;;;;10940691;32;20034;-68
2022/03/09 04:15:49;;;;;;;25.90;18.40;;;5.70;69.20;;;;;;10944663;32;20046;-68
2022/03/09 04:21:51;;;;;;;27.15;16.27;;;5.60;69.70;;;;;;10947538;32;20015;-68
2022/03/09 04:27:53;;;;;;;23.87;16.30;;;5.60;69.90;;;;;;10947239;32;20322;-68
2022/03/09 04:33:55;;;;;;;36.15;24.42;;;5.60;69.60;;;;;;10947056;32;20049;-68
2022/03/09 04:39:58;;;;;;;27.67;18.05;;;5.60;69.50;;;;;;10933369;32;20049;-68
2022/03/09 04:46:00;;;;;;;30.90;21.98;;;5.60;69.50;;;;;;10946665;32;20049;-68
2022/03/09 04:52:03;;;;;;;24.95;16.52;;;5.60;69.80;;;;;;10946386;32;20026;-68
2022/03/09 04:58:05;;;;;;;29.90;19.60;;;5.60;70.10;;;;;;10946284;32;20027;-68
2022/03/09 05:04:07;;;;;;;29.75;20.15;;;5.60;70.00;;;;;;10946007;32;20049;-68
2022/03/09 05:10:10;;;;;;;27.60;18.35;;;5.50;69.80;;;;;;10932492;32;20457;-68
2022/03/09 05:16:13;;;;;;;25.83;18.42;;;5.40;69.70;;;;;;10945877;32;20319;-68
2022/03/09 05:22:15;;;;;;;24.90;17.67;;;5.30;69.90;;;;;;10945333;32;20053;-69
2022/03/09 05:28:17;;;;;;;27.17;18.90;;;5.40;69.90;;;;;;10944985;32;20023;-68
2022/03/09 05:34:19;;;;;;;23.27;17.02;;;5.50;70.00;;;;;;10944964;32;20055;-68
2022/03/09 05:40:21;;;;;;;29.15;19.25;;;5.60;69.90;;;;;;10943199;32;20046;-68
2022/03/09 05:46:24;;;;;;;28.87;18.73;;;5.60;69.60;;;;;;10944344;32;20030;-69
2022/03/09 05:52:27;;;;;;;25.40;19.15;;;5.60;69.50;;;;;;10942745;32;20026;-68
2022/03/09 05:59:21;;;;;;;29.02;19.52;;;5.60;69.50;;;;;;10828704;32;20058;-69
2022/03/09 06:05:23;;;;;;;27.70;19.35;;;5.70;69.50;;;;;;10827682;32;20024;-68
2022/03/09 06:11:25;;;;;;;27.52;17.20;;;5.80;69.20;;;;;;10828025;32;20070;-69
2022/03/09 06:17:27;;;;;;;38.03;26.15;;;5.90;69.20;;;;;;10823111;33;20023;-68
2022/03/09 06:23:29;;;;;;;32.03;23.00;;;6.10;69.20;;;;;;10827150;32;20063;-68
2022/03/09 06:29:59;;;;;;;33.67;23.30;;;6.20;69.40;;;;;;10823672;32;20456;-68
2022/03/09 06:36:15;;;;;;;42.08;28.25;;;6.30;69.00;;;;;;10790296;33;20043;-69
2022/03/09 06:42:34;;;;;;;35.90;25.80;;;6.40;68.90;;;;;;10839742;32;20062;-68
2022/03/09 06:48:39;;;;;;;36.55;26.83;;;6.40;68.70;;;;;;10867194;32;20059;-68
2022/03/09 06:54:44;;;;;;;34.75;24.12;;;6.20;69.20;;;;;;10867074;32;20023;-69
2022/03/09 07:00:46;;;;;;;32.17;22.55;;;6.10;70.10;;;;;;10866805;32;20035;-68
2022/03/09 07:06:48;;;;;;;31.98;22.70;;;6.20;70.30;;;;;;10866633;32;20031;-68
2022/03/09 07:12:50;;;;;;;33.53;21.42;;;6.20;70.10;;;;;;10865654;32;20059;-68
2022/03/09 07:18:52;;;;;;;30.45;22.67;;;6.10;70.70;;;;;;10891685;27;20043;-68
2022/03/09 07:24:54;;;;;;;43.25;28.00;;;6.20;71.30;;;;;;10880396;32;20321;-68
2022/03/09 07:30:57;;;;;;;43.05;29.80;;;6.70;70.90;;;;;;10893100;32;20035;-68
2022/03/09 07:36:59;;;;;;;32.30;24.17;;;7.10;70.50;;;;;;10888991;32;20031;-68
2022/03/09 07:43:03;;;;;;;33.97;22.00;;;7.40;69.80;;;;;;10886754;32;20027;-68
2022/03/09 07:49:05;;;;;;;28.27;20.15;;;7.40;68.20;;;;;;10867980;32;20035;-68
2022/03/09 07:55:08;;;;;;;29.27;21.12;;;7.00;69.50;;;;;;10868939;32;20027;-68
2022/03/09 08:01:55;;;;;;;39.22;22.50;;;6.80;70.00;;;;;;10875210;32;20351;-68
2022/03/09 08:07:58;;;;;;;30.50;19.80;;;6.90;70.90;;;;;;10872828;32;20431;-68
2022/03/09 08:14:18;;;;;;;24.98;18.40;;;7.20;70.20;;;;;;10872671;32;20055;-67
2022/03/09 08:20:31;;;;;;;27.80;18.05;;;7.40;70.40;;;;;;10868477;32;20023;-67
2022/03/09 08:26:33;;;;;;;30.00;20.62;;;7.40;70.00;;;;;;10879127;32;20035;-67
2022/03/09 08:32:42;;;;;;;27.23;17.10;;;7.20;69.70;;;;;;10909153;32;20387;-68
2022/03/09 08:39:04;;;;;;;30.00;20.08;;;7.20;70.30;;;;;;10909229;32;20023;-67
2022/03/09 08:45:07;;;;;;;25.75;18.27;;;7.40;70.50;;;;;;10906742;32;20035;-68
2022/03/09 08:51:10;;;;;;;27.62;17.92;;;7.60;69.70;;;;;;10908541;32;20093;-68
2022/03/09 08:57:13;;;;;;;23.42;14.00;;;7.70;70.20;;;;;;10908637;32;20315;-69
2022/03/09 09:03:16;;;;;;;28.85;19.25;;;7.90;69.80;;;;;;10905162;32;20023;-69
2022/03/09 09:09:18;;;;;;;24.85;13.15;;;8.00;70.20;;;;;;10894777;32;20061;-69
2022/03/09 09:15:22;;;;;;;18.12;12.85;;;8.00;69.90;;;;;;10907835;32;20461;-69
2022/03/09 09:21:31;;;;;;;25.05;15.10;;;8.10;69.60;;;;;;10894027;32;20073;-69
2022/03/09 09:27:33;;;;;;;23.98;15.30;;;8.20;69.70;;;;;;10908021;32;20371;-69
2022/03/09 09:33:36;;;;;;;24.80;13.75;;;8.60;69.20;;;;;;10907238;32;20027;-69
2022/03/09 09:39:38;;;;;;;19.02;12.32;;;8.70;68.40;;;;;;10907050;32;20031;-69
2022/03/09 09:45:41;;;;;;;15.73;10.43;;;8.80;68.80;;;;;;10906241;32;20464;-68
2022/03/09 09:51:45;;;;;;;20.25;13.18;;;8.90;68.70;;;;;;10881763;32;20023;-69
2022/03/09 09:57:48;;;;;;;25.45;16.60;;;8.90;68.70;;;;;;10869065;32;20027;-68
2022/03/09 10:03:50;;;;;;;25.85;16.45;;;8.80;67.30;;;;;;10868728;32;20078;-68
2022/03/09 10:09:52;;;;;;;28.27;18.00;;;8.90;67.50;;;;;;10868237;32;20032;-68
2022/03/09 10:16:21;;;;;;;23.15;14.70;;;9.10;66.30;;;;;;10867612;32;20023;-68
2022/03/09 10:22:24;;;;;;;16.33;11.90;;;9.20;64.90;;;;;;10867852;32;20036;-69
2022/03/09 10:28:26;;;;;;;19.80;13.48;;;9.30;65.80;;;;;;10864810;32;20317;-68
2022/03/09 10:34:29;;;;;;;14.20;10.60;;;9.60;64.80;;;;;;10870509;32;20058;-69
2022/03/09 10:40:38;;;;;;;32.30;21.95;;;9.70;64.90;;;;;;10862330;32;20042;-69
2022/03/09 10:46:47;;;;;;;25.33;16.65;;;9.80;65.10;;;;;;10862316;32;20019;-68
2022/03/09 10:52:55;;;;;;;24.27;15.43;;;9.90;63.00;;;;;;10853635;32;20024;-68
2022/03/09 10:59:11;;;;;;;29.17;17.67;;;10.10;62.30;;;;;;10866468;32;20046;-68
2022/03/09 11:05:14;;;;;;;27.58;16.48;;;10.20;63.10;;;;;;10866735;32;20297;-68
2022/03/09 11:11:19;;;;;;;25.80;18.75;;;10.40;61.00;;;;;;10866953;32;20031;-68
2022/03/09 11:17:25;;;;;;;22.25;14.98;;;10.60;60.40;;;;;;10866748;32;20042;-68
2022/03/09 11:23:32;;;;;;;25.95;19.80;;;10.80;58.10;;;;;;10851677;32;20023;-68
2022/03/09 11:29:35;;;;;;;26.62;14.15;;;11.10;57.30;;;;;;10860945;32;20019;-68
2022/03/09 11:35:40;;;;;;;17.48;12.80;;;11.40;55.20;;;;;;10873969;32;20039;-69
2022/03/09 11:41:43;;;;;;;21.90;14.73;;;11.70;55.50;;;;;;10873896;32;20054;-68
2022/03/09 11:48:21;;;;;;;20.45;13.98;;;12.00;54.80;;;;;;10872997;32;20381;-68
2022/03/09 11:54:42;;;;;;;22.58;16.02;;;12.10;51.90;;;;;;10859823;32;20343;-68
2022/03/09 12:01:24;;;;;;;18.50;12.77;;;12.40;50.90;;;;;;10870476;32;20079;-69
2022/03/09 12:07:33;;;;;;;21.45;15.77;;;12.60;50.60;;;;;;10870400;32;20053;-69
2022/03/09 12:13:45;;;;;;;31.37;19.92;;;12.60;48.10;;;;;;10907736;32;20040;-69
2022/03/09 12:20:15;;;;;;;22.60;16.30;;;12.70;48.10;;;;;;10889638;32;20305;-68
2022/03/09 12:26:39;;;;;;;35.33;23.77;;;12.60;45.80;;;;;;10872012;32;20050;-68
2022/03/09 12:32:41;;;;;;;16.70;11.18;;;12.80;45.60;;;;;;10871735;32;20024;-68
2022/03/09 12:38:53;;;;;;;16.75;10.75;;;12.70;45.20;;;;;;10857801;32;20020;-68
2022/03/09 12:45:01;;;;;;;17.42;12.52;;;12.80;45.80;;;;;;10873025;32;20036;-68
2022/03/09 12:51:08;;;;;;;26.30;19.77;;;12.90;45.30;;;;;;10871367;32;20328;-68
2022/03/09 12:57:24;;;;;;;23.33;14.27;;;13.00;43.50;;;;;;10869180;32;20104;-68
2022/03/09 13:03:28;;;;;;;19.20;13.80;;;13.10;45.50;;;;;;10872132;32;20028;-68
2022/03/09 13:09:35;;;;;;;18.65;10.65;;;13.20;43.60;;;;;;10905104;32;20093;-68
2022/03/09 13:15:41;;;;;;;20.02;11.85;;;13.20;43.00;;;;;;10900710;32;20019;-68
2022/03/09 13:21:48;;;;;;;18.37;10.73;;;13.30;44.70;;;;;;10894059;32;20041;-68
2022/03/09 13:28:00;;;;;;;15.20;10.23;;;13.40;44.00;;;;;;10907347;32;20055;-68
2022/03/09 13:34:11;;;;;;;17.80;12.40;;;13.50;42.60;;;;;;10907292;32;20046;-68
2022/03/09 13:40:21;;;;;;;15.80;10.85;;;13.50;40.60;;;;;;10889931;32;20339;-69
2022/03/09 13:46:24;;;;;;;21.12;16.25;;;13.50;40.30;;;;;;10906521;32;20031;-72
2022/03/09 13:52:32;;;;;;;22.45;17.58;;;13.50;41.00;;;;;;10907321;32;20020;-71
2022/03/09 13:59:01;;;;;;;18.63;12.23;;;13.60;39.70;;;;;;10907110;32;20042;-71
2022/03/09 14:05:04;;;;;;;19.35;13.48;;;13.60;39.10;;;;;;10907174;32;20015;-71
2022/03/09 14:11:13;;;;;;;25.90;16.83;;;13.70;39.50;;;;;;10905774;32;20031;-71
2022/03/09 14:17:15;;;;;;;23.87;16.67;;;13.80;38.90;;;;;;10890505;32;20032;-71
2022/03/09 14:23:19;;;;;;;18.12;13.57;;;13.80;36.70;;;;;;10906712;32;20019;-70
2022/03/09 14:29:23;;;;;;;21.58;12.60;;;14.00;37.80;;;;;;10906439;32;20395;-70
2022/03/09 14:35:25;;;;;;;26.12;18.02;;;14.30;38.00;;;;;;10892631;32;20049;-70
2022/03/09 14:41:27;;;;;;;20.58;13.90;;;14.60;38.30;;;;;;10905681;32;20403;-70
2022/03/09 14:47:30;;;;;;;27.60;18.08;;;14.70;38.20;;;;;;10879366;32;20316;-71
2022/03/09 14:53:36;;;;;;;21.27;14.68;;;14.70;37.80;;;;;;10868861;32;20027;-70
2022/03/09 14:59:38;;;;;;;16.37;13.38;;;14.80;38.60;;;;;;10867355;32;20252;-70
2022/03/09 15:05:40;;;;;;;19.23;13.65;;;14.90;38.40;;;;;;10867095;32;20387;-70
2022/03/09 15:11:45;;;;;;;21.10;14.82;;;15.10;38.50;;;;;;10872365;32;20053;-70
2022/03/09 15:17:47;;;;;;;18.40;11.68;;;15.20;38.40;;;;;;9466123;27;47620427;-70
2022/03/09 15:23:49;;;;;;;15.77;10.80;;;15.50;38.80;;;;;;10900483;32;20031;-70
2022/03/09 15:29:52;;;;;;;18.75;12.77;;;16.20;38.60;;;;;;10904240;32;20070;-71
2022/03/09 15:35:54;;;;;;;16.92;11.57;;;16.60;37.90;;;;;;10904424;32;20023;-70
2022/03/09 15:41:56;;;;;;;22.98;15.05;;;16.80;38.10;;;;;;10891293;32;20019;-70
2022/03/09 15:47:59;;;;;;;13.68;9.35;;;17.40;37.50;;;;;;10880120;32;20355;-70
2022/03/09 15:54:02;;;;;;;14.93;9.13;;;17.90;37.30;;;;;;10890181;32;20105;-70
2022/03/09 16:00:07;;;;;;;12.10;7.18;;;18.50;37.60;;;;;;10877659;32;20039;-70
2022/03/09 16:06:14;;;;;;;11.43;7.60;;;18.90;37.70;;;;;;10866592;32;20016;-71
2022/03/09 16:12:16;;;;;;;16.85;11.25;;;19.30;37.60;;;;;;10868864;32;20039;-71
2022/03/09 16:18:18;;;;;;;16.67;10.40;;;19.40;37.90;;;;;;10873555;32;20028;-71
2022/03/09 16:24:39;;;;;;;13.55;8.75;;;19.40;38.90;;;;;;10873467;32;20019;-71
2022/03/09 16:30:41;;;;;;;14.48;9.93;;;19.50;38.90;;;;;;10873278;32;20023;-71
2022/03/09 16:36:44;;;;;;;20.33;12.55;;;19.00;39.10;;;;;;10910346;32;20023;-71
2022/03/09 16:42:48;;;;;;;17.52;12.13;;;18.20;39.40;;;;;;10910039;32;20363;-71
2022/03/09 16:49:21;;;;;;;15.65;9.73;;;17.70;41.10;;;;;;10910018;32;20042;-70
2022/03/09 16:55:24;;;;;;;9.82;6.65;;;16.90;42.50;;;;;;10884566;32;20066;-70
2022/03/09 17:01:26;;;;;;;8.95;5.97;;;16.00;44.70;;;;;;10872334;32;20023;-70
2022/03/09 17:07:28;;;;;;;11.38;6.45;;;15.30;46.50;;;;;;10872194;32;20315;-70
2022/03/09 17:13:30;;;;;;;11.50;6.35;;;14.80;48.00;;;;;;10871716;32;20031;-70
2022/03/09 17:19:32;;;;;;;9.63;7.00;;;14.50;49.00;;;;;;10871595;32;20055;-70
2022/03/09 17:25:34;;;;;;;12.70;7.18;;;14.20;50.00;;;;;;10858225;32;20036;-70
2022/03/09 17:31:36;;;;;;;14.38;6.25;;;13.90;50.80;;;;;;10870950;32;20046;-70
2022/03/09 17:37:40;;;;;;;11.07;5.47;;;13.70;51.60;;;;;;10870922;32;20050;-70
2022/03/09 17:43:42;;;;;;;14.75;7.22;;;13.50;52.20;;;;;;10870602;32;20082;-70
2022/03/09 17:49:44;;;;;;;19.65;14.87;;;13.30;52.80;;;;;;10870299;32;20035;-70
2022/03/09 17:56:10;;;;;;;21.73;14.77;;;13.20;53.10;;;;;;10870492;32;20023;-70
2022/03/09 18:02:12;;;;;;;20.52;14.48;;;12.90;53.70;;;;;;10865166;32;20049;-70
2022/03/09 18:08:17;;;;;;;30.75;20.83;;;12.80;54.60;;;;;;10869833;32;20019;-70
2022/03/09 18:14:19;;;;;;;24.37;17.52;;;12.70;55.20;;;;;;10869566;32;20019;-70
2022/03/09 18:20:21;;;;;;;28.33;21.20;;;12.70;55.30;;;;;;10869612;32;20070;-70
2022/03/09 18:26:23;;;;;;;31.65;22.08;;;12.70;55.90;;;;;;10867900;32;20364;-70
2022/03/09 18:32:26;;;;;;;15.70;12.15;;;12.60;55.90;;;;;;10866293;32;20031;-70
2022/03/09 18:38:28;;;;;;;20.92;14.05;;;12.50;56.00;;;;;;10869215;32;20043;-70
2022/03/09 18:44:37;;;;;;;18.92;13.32;;;12.30;56.50;;;;;;10855643;32;20388;-70
2022/03/09 18:50:39;;;;;;;20.30;14.00;;;12.20;56.90;;;;;;10868691;32;20058;-70
2022/03/09 18:56:41;;;;;;;19.58;14.82;;;12.00;57.30;;;;;;10868356;32;20023;-70
2022/03/09 19:02:44;;;;;;;17.35;12.37;;;11.90;57.70;;;;;;10868390;32;20023;-70
2022/03/09 19:08:46;;;;;;;21.58;14.85;;;11.80;58.10;;;;;;10867939;32;20031;-70
2022/03/09 19:14:48;;;;;;;21.35;14.50;;;11.70;58.40;;;;;;10868022;32;20012;-70
2022/03/09 19:20:50;;;;;;;36.92;24.80;;;11.60;58.60;;;;;;10867815;32;20023;-70
2022/03/09 19:26:52;;;;;;;22.45;17.75;;;11.50;58.90;;;;;;10867996;32;20089;-70
2022/03/09 19:32:54;;;;;;;21.58;14.90;;;11.40;59.20;;;;;;10867519;32;20282;-70
2022/03/09 19:38:56;;;;;;;23.67;15.07;;;11.30;59.50;;;;;;10867506;32;20103;-70
2022/03/09 19:44:59;;;;;;;24.12;18.12;;;11.20;59.70;;;;;;10866390;32;20339;-70
2022/03/09 19:51:02;;;;;;;24.30;18.50;;;11.20;60.00;;;;;;10874702;32;20031;-70
2022/03/09 19:57:04;;;;;;;24.30;16.40;;;11.10;60.20;;;;;;10874302;32;20023;-70
2022/03/09 20:03:23;;;;;;;21.02;15.73;;;11.00;60.40;;;;;;10874213;32;20028;-70
2022/03/09 20:09:45;;;;;;;26.95;18.62;;;10.90;60.70;;;;;;10874009;32;20028;-70
2022/03/09 20:15:47;;;;;;;29.35;19.10;;;10.70;61.10;;;;;;10873738;32;20045;-70
2022/03/09 20:21:49;;;;;;;25.70;17.80;;;10.70;61.30;;;;;;10873527;32;20023;-70
2022/03/09 20:27:52;;;;;;;39.20;28.75;;;10.60;61.40;;;;;;10860005;32;20063;-70
2022/03/09 20:33:54;;;;;;;46.37;33.88;;;10.50;61.70;;;;;;10873126;32;20020;-70
2022/03/09 20:40:08;;;;;;;35.15;24.45;;;10.50;61.90;;;;;;10872960;32;20019;-70
2022/03/09 20:46:11;;;;;;;26.75;21.08;;;10.40;61.80;;;;;;10871045;32;20027;-70
2022/03/09 20:52:14;;;;;;;28.95;20.58;;;10.20;62.00;;;;;;10859213;32;20035;-70
2022/03/09 20:58:16;;;;;;;34.92;26.60;;;10.20;62.30;;;;;;10871892;32;20339;-70
2022/03/09 21:04:18;;;;;;;28.23;21.55;;;10.10;62.40;;;;;;10872206;32;20043;-70
2022/03/09 21:10:22;;;;;;;31.33;22.27;;;10.10;62.50;;;;;;10871886;32;20214;-70
2022/03/09 21:16:24;;;;;;;26.40;18.50;;;10.00;62.60;;;;;;10871629;32;20024;-70
2022/03/09 21:22:41;;;;;;;44.25;31.55;;;9.80;63.00;;;;;;10871620;32;20344;-70
2022/03/09 21:28:58;;;;;;;37.38;26.87;;;9.80;63.10;;;;;;10870393;32;20032;-70
2022/03/09 21:35:00;;;;;;;37.92;28.17;;;9.90;63.60;;;;;;10871029;32;20020;-70
2022/03/09 21:41:03;;;;;;;28.60;20.25;;;9.80;63.40;;;;;;10867478;32;20063;-70
2022/03/09 21:47:34;;;;;;;31.95;22.23;;;9.80;63.40;;;;;;10870837;32;20016;-70
2022/03/09 21:53:36;;;;;;;25.62;19.37;;;9.60;63.60;;;;;;10870461;32;20020;-70
2022/03/09 21:59:38;;;;;;;44.97;31.30;;;9.40;64.10;;;;;;10866068;32;20277;-70
2022/03/09 22:05:42;;;;;;;32.83;24.15;;;9.50;64.10;;;;;;10865826;32;20054;-70
2022/03/09 22:11:45;;;;;;;32.80;21.37;;;9.40;64.10;;;;;;10868714;32;20023;-70
2022/03/09 22:17:48;;;;;;;37.45;24.77;;;9.30;64.40;;;;;;10869460;32;20027;-70
2022/03/09 22:23:51;;;;;;;35.13;25.95;;;9.20;64.70;;;;;;10869447;32;20404;-70
2022/03/09 22:29:59;;;;;;;28.27;21.17;;;9.20;65.00;;;;;;10865642;32;20394;-70
2022/03/09 22:36:01;;;;;;;31.75;23.12;;;9.10;65.10;;;;;;10869153;32;20340;-70
2022/03/09 22:42:09;;;;;;;40.97;32.85;;;9.10;65.20;;;;;;10868937;32;20301;-70
2022/03/09 22:48:12;;;;;;;35.08;24.75;;;9.00;65.40;;;;;;10867467;32;20035;-70
2022/03/09 22:54:14;;;;;;;43.50;33.30;;;9.00;65.40;;;;;;10868504;32;20054;-70
2022/03/09 23:00:37;;;;;;;40.00;29.85;;;8.90;66.00;;;;;;10868630;32;20016;-70
2022/03/09 23:06:39;;;;;;;50.97;34.55;;;9.00;66.00;;;;;;10868472;32;20046;-70
2022/03/09 23:12:41;;;;;;;46.83;37.22;;;9.00;66.30;;;;;;10868216;32;20031;-70
2022/03/09 23:18:44;;;;;;;50.30;35.03;;;8.90;66.00;;;;;;10893411;27;20035;-70
2022/03/09 23:24:46;;;;;;;36.55;24.48;;;8.90;66.30;;;;;;10905388;32;20036;-70
2022/03/09 23:30:50;;;;;;;27.13;20.50;;;8.70;65.90;;;;;;10891888;32;20058;-70
2022/03/09 23:36:53;;;;;;;32.92;22.42;;;8.30;66.70;;;;;;10905105;32;20062;-70
2022/03/09 23:43:01;;;;;;;29.98;22.48;;;8.30;66.70;;;;;;10904953;32;20023;-70
2022/03/09 23:49:04;;;;;;;29.87;21.12;;;8.20;66.80;;;;;;10904013;32;20058;-70
2022/03/09 23:55:07;;;;;;;27.08;19.60;;;8.20;66.90;;;;;;10900551;32;20028;-70
